Time;durP1;ratioP1;P1;durP2;ratioP2;P2;SDS_P1;SDS_P2;PMS_P1;PMS_P2;Temp;Humidity;BMP_temperature;BMP_pressure;BME280_temperature;BME280_humidity;BME280_pressure;Samples;Min_cycle;Max_cycle;Signal;HPM_P1;HPM_P2
2021/01/05 00:02:06;;;;;;;63.33;33.00;;;;;;;5.32;97.58;100085.08;1634514;85;21166;-71
2021/01/05 00:04:34;;;;;;;58.13;31.70;;;;;;;5.27;97.86;100087.25;1669624;85;21869;-70
2021/01/05 00:07:05;;;;;;;56.08;29.77;;;;;;;5.25;97.89;100085.24;1669293;85;21228;-70
2021/01/05 00:09:30;;;;;;;63.42;32.85;;;;;;;5.31;98.00;100086.52;1670233;85;21214;-68
2021/01/05 00:12:09;;;;;;;60.63;31.90;;;;;;;5.23;98.04;100084.52;1670244;85;28286;-67
2021/01/05 00:14:36;;;;;;;60.85;31.73;;;;;;;5.26;98.08;100082.95;1670232;85;21647;-69
2021/01/05 00:17:04;;;;;;;58.05;32.00;;;;;;;5.31;98.01;100076.04;1651051;85;21971;-68
2021/01/05 00:19:30;;;;;;;58.52;31.27;;;;;;;5.32;97.92;100074.61;1670293;85;21214;-72
2021/01/05 00:21:56;;;;;;;54.73;30.62;;;;;;;5.33;97.80;100076.28;1669974;85;24689;-70
2021/01/05 00:24:21;;;;;;;53.42;28.05;;;;;;;5.33;97.74;100067.12;1670563;85;28296;-70
2021/01/05 00:26:47;;;;;;;51.23;28.55;;;;;;;5.39;97.99;100069.70;1670223;85;26794;-68
2021/01/05 00:29:14;;;;;;;52.83;28.05;;;;;;;5.65;97.16;100064.13;1670332;85;21912;-68
2021/01/05 00:31:40;;;;;;;48.17;27.30;;;;;;;5.87;96.02;100063.17;1670428;85;21194;-69
2021/01/05 00:34:06;;;;;;;48.13;26.60;;;;;;;5.85;95.41;100071.65;1670601;85;25851;-70
2021/01/05 00:36:32;;;;;;;48.78;26.93;;;;;;;6.14;94.62;100067.08;1670557;85;21665;-69
2021/01/05 00:38:58;;;;;;;47.78;26.05;;;;;;;6.00;94.28;100070.41;1670184;85;26895;-69
2021/01/05 00:41:24;;;;;;;46.05;25.92;;;;;;;5.77;95.08;100072.77;1670316;85;21971;-70
2021/01/05 00:43:50;;;;;;;46.92;25.80;;;;;;;5.68;95.66;100066.00;1670321;85;26969;-68
2021/01/05 00:46:17;;;;;;;46.13;25.70;;;;;;;5.68;95.90;100059.45;1670440;85;25335;-68
2021/01/05 00:48:43;;;;;;;44.33;25.68;;;;;;;5.66;96.00;100064.00;1670681;85;21614;-69
2021/01/05 00:51:13;;;;;;;44.08;25.23;;;;;;;5.63;96.21;100060.33;1670634;85;21162;-68
2021/01/05 00:53:39;;;;;;;43.05;25.32;;;;;;;5.65;96.08;100058.88;1670640;85;21659;-68
2021/01/05 00:56:05;;;;;;;41.05;24.02;;;;;;;5.65;96.05;100057.09;1670202;85;27006;-68
2021/01/05 00:58:31;;;;;;;43.48;24.57;;;;;;;5.62;96.15;100061.27;1670271;85;21202;-68
2021/01/05 01:00:57;;;;;;;44.38;24.55;;;;;;;5.62;96.22;100056.52;1670534;85;28376;-68
2021/01/05 01:03:23;;;;;;;44.20;24.98;;;;;;;5.61;96.11;100057.01;1675296;84;26988;-69
2021/01/05 01:05:49;;;;;;;46.13;25.00;;;;;;;5.49;96.61;100049.67;1675127;84;21800;-68
2021/01/05 01:08:16;;;;;;;41.18;23.67;;;;;;;5.48;97.06;100053.72;1672819;84;21246;-70
2021/01/05 01:10:42;;;;;;;40.28;18.67;;;;;;;5.42;97.07;100049.80;1673642;84;21259;-68
2021/01/05 01:13:08;;;;;;;39.18;23.18;;;;;;;5.40;97.52;100048.62;1676803;84;28267;-68
2021/01/05 01:15:34;;;;;;;40.23;23.10;;;;;;;5.45;97.55;100043.50;1676926;84;27180;-68
2021/01/05 01:17:59;;;;;;;39.55;23.12;;;;;;;5.42;97.45;100040.64;1673475;84;22397;-68
2021/01/05 01:20:25;;;;;;;37.80;22.40;;;;;;;5.48;97.48;100040.14;1672397;84;27490;-68
2021/01/05 01:22:51;;;;;;;36.88;22.60;;;;;;;5.45;97.49;100033.02;1674530;84;25854;-68
2021/01/05 01:25:17;;;;;;;36.45;21.70;;;;;;;5.41;97.75;100032.45;1673477;84;28393;-68
2021/01/05 01:27:43;;;;;;;38.75;21.65;;;;;;;5.40;97.85;100032.91;1678020;84;21251;-69
2021/01/05 01:30:09;;;;;;;39.10;23.02;;;;;;;5.33;98.13;100025.22;1672511;84;21864;-68
2021/01/05 01:32:35;;;;;;;41.60;22.60;;;;;;;5.35;98.15;100027.23;1675379;84;21628;-68
2021/01/05 01:35:01;;;;;;;36.25;21.90;;;;;;;5.36;98.14;100030.20;1669127;84;25476;-69
2021/01/05 01:37:27;;;;;;;38.60;22.15;;;;;;;5.38;98.11;100031.39;1677265;84;21574;-69
2021/01/05 01:39:53;;;;;;;38.98;21.65;;;;;;;5.39;98.14;100030.41;1672325;84;26893;-69
2021/01/05 01:42:19;;;;;;;41.20;22.37;;;;;;;5.42;98.06;100031.47;1674752;84;21888;-69
2021/01/05 01:44:46;;;;;;;41.13;22.90;;;;;;;5.37;98.40;100025.30;1674295;84;21272;-69
2021/01/05 01:47:20;;;;;;;42.55;24.18;;;;;;;5.36;98.49;100028.05;1674201;84;21189;-68
2021/01/05 01:49:53;;;;;;;40.48;23.10;;;;;;;5.39;98.34;100027.34;1673878;84;21202;-68
2021/01/05 01:52:50;;;;;;;37.23;21.50;;;;;;;5.37;98.53;100024.00;1674904;84;21228;-68
2021/01/05 01:55:54;;;;;;;39.50;23.07;;;;;;;5.53;98.32;100026.20;1675044;84;21186;-70
2021/01/05 01:58:44;;;;;;;40.70;22.75;;;;;;;6.03;95.75;100028.66;1670527;84;21226;-68
2021/01/05 02:01:27;;;;;;;38.92;22.17;;;;;;;5.90;95.58;100024.91;1676669;84;21632;-69
2021/01/05 02:04:20;;;;;;;36.73;21.62;;;;;;;6.02;95.31;100021.29;1669619;84;21184;-67
2021/01/05 02:07:15;;;;;;;38.48;22.10;;;;;;;5.87;95.42;100017.30;1672384;84;21148;-65
2021/01/05 02:10:11;;;;;;;36.28;20.62;;;;;;;5.83;95.68;100020.67;1670977;84;21959;-68
2021/01/05 02:12:42;;;;;;;37.60;22.00;;;;;;;5.77;96.16;100013.82;1672985;84;21219;-68
2021/01/05 02:15:26;;;;;;;38.08;20.60;;;;;;;5.72;96.23;100007.16;1652147;84;21239;-68
2021/01/05 02:18:42;;;;;;;40.03;21.95;;;;;;;5.66;96.56;100004.23;1670641;84;21199;-68
2021/01/05 02:21:25;;;;;;;40.17;23.05;;;;;;;5.64;96.87;99997.81;1676468;84;21688;-67
2021/01/05 02:24:14;;;;;;;44.42;23.15;;;;;;;5.64;96.87;99991.72;1674165;84;21237;-68
2021/01/05 02:27:02;;;;;;;40.70;23.22;;;;;;;5.64;97.07;99995.65;1672178;84;21790;-69
2021/01/05 02:29:57;;;;;;;42.03;23.10;;;;;;;5.56;97.17;99985.81;1674573;84;21565;-67
2021/01/05 02:32:44;;;;;;;44.27;23.52;;;;;;;5.56;97.49;99984.50;1675263;84;21219;-70
2021/01/05 02:35:49;;;;;;;37.13;21.75;;;;;;;5.57;97.75;99982.25;1672216;84;21183;-69
2021/01/05 02:38:38;;;;;;;40.05;22.22;;;;;;;5.55;97.82;99982.86;1633802;86;21321;-69
2021/01/05 02:41:21;;;;;;;41.50;22.90;;;;;;;5.58;97.88;99973.44;1638864;86;21187;-70
2021/01/05 02:44:14;;;;;;;38.38;21.25;;;;;;;5.52;98.31;99967.41;1660712;84;21474;-69
2021/01/05 02:46:48;;;;;;;38.63;21.80;;;;;;;5.54;98.37;99965.47;1675531;84;21610;-69
2021/01/05 02:49:40;;;;;;;37.73;21.48;;;;;;;5.55;98.32;99963.22;1676871;84;21183;-69
2021/01/05 02:52:42;;;;;;;36.53;21.02;;;;;;;5.55;98.27;99967.14;1674552;84;21274;-69
2021/01/05 02:55:47;;;;;;;36.42;20.72;;;;;;;5.42;99.01;99962.56;1675095;84;21207;-69
2021/01/05 02:58:40;;;;;;;32.10;19.42;;;;;;;5.43;99.17;99956.38;1677783;84;21160;-69
2021/01/05 03:01:30;;;;;;;37.03;19.50;;;;;;;5.48;99.06;99947.16;1674106;84;21262;-70
2021/01/05 03:03:56;;;;;;;36.13;19.57;;;;;;;5.53;99.04;99952.88;1677552;84;21224;-71
2021/01/05 03:06:36;;;;;;;36.55;19.60;;;;;;;5.55;98.75;99943.58;1679653;84;21552;-70
2021/01/05 03:09:33;;;;;;;34.65;19.90;;;;;;;5.50;98.98;99943.95;1681600;85;21667;-71
2021/01/05 03:12:22;;;;;;;31.80;18.17;;;;;;;5.51;99.02;99932.50;1679503;84;21173;-70
2021/01/05 03:15:27;;;;;;;33.95;18.50;;;;;;;5.48;99.13;99935.88;1681619;84;21193;-70
2021/01/05 03:18:01;;;;;;;36.60;20.48;;;;;;;5.52;99.12;99929.42;1679937;85;21157;-68
2021/01/05 03:20:35;;;;;;;33.63;18.87;;;;;;;5.56;98.79;99932.12;1681895;84;21193;-68
2021/01/05 03:23:03;;;;;;;34.10;19.20;;;;;;;5.65;98.89;99927.41;1681745;84;21221;-68
2021/01/05 03:25:32;;;;;;;35.83;19.80;;;;;;;5.94;97.64;99920.18;1660198;85;21172;-67
2021/01/05 03:28:00;;;;;;;32.98;17.73;;;;;;;6.14;96.48;99921.58;1680407;84;21166;-67
2021/01/05 03:30:49;;;;;;;28.83;17.35;;;;;;;6.28;95.71;99918.60;1660413;85;21178;-68
2021/01/05 03:33:15;;;;;;;31.62;17.77;;;;;;;6.23;95.33;99920.77;1680870;84;21214;-68
2021/01/05 03:35:41;;;;;;;29.42;16.85;;;;;;;6.11;95.48;99914.33;1681145;85;27045;-68
2021/01/05 03:38:06;;;;;;;27.07;16.25;;;;;;;6.06;95.62;99912.60;1681429;84;25379;-69
2021/01/05 03:40:32;;;;;;;26.87;15.65;;;;;;;6.00;95.98;99906.58;1681095;84;28420;-68
2021/01/05 03:42:59;;;;;;;26.57;15.63;;;;;;;5.89;96.47;99904.03;1661175;85;26693;-68
2021/01/05 03:45:30;;;;;;;28.07;15.88;;;;;;;5.87;96.66;99903.31;1661348;85;21202;-68
2021/01/05 03:47:56;;;;;;;29.23;16.12;;;;;;;5.89;96.95;99897.48;1677449;85;21205;-68
2021/01/05 03:50:22;;;;;;;28.90;16.73;;;;;;;5.87;96.89;99892.83;1681792;84;25382;-67
2021/01/05 03:52:48;;;;;;;28.90;16.48;;;;;;;5.80;97.20;99893.03;1681212;84;21650;-68
2021/01/05 03:55:15;;;;;;;27.48;15.88;;;;;;;5.80;97.32;99889.09;1680392;85;26746;-70
2021/01/05 03:57:41;;;;;;;27.13;15.63;;;;;;;5.80;97.36;99891.72;1680344;85;21185;-67
2021/01/05 04:00:10;;;;;;;27.65;15.60;;;;;;;5.77;97.59;99884.94;1681016;84;27069;-68
2021/01/05 04:02:36;;;;;;;27.32;15.50;;;;;;;5.74;97.58;99880.78;1681057;85;21221;-67
2021/01/05 04:05:02;;;;;;;26.75;16.20;;;;;;;5.73;97.86;99887.46;1670784;85;28360;-67
2021/01/05 04:07:28;;;;;;;22.93;13.00;;;;;;;5.66;98.14;99881.92;1670287;85;21154;-69
2021/01/05 04:09:54;;;;;;;23.80;14.30;;;;;;;5.67;98.11;99883.59;1670808;85;21999;-68
2021/01/05 04:12:19;;;;;;;23.00;14.25;;;;;;;5.63;98.29;99887.43;1668559;85;27036;-69
2021/01/05 04:14:45;;;;;;;23.55;14.40;;;;;;;5.66;98.17;99888.97;1671002;85;25110;-69
2021/01/05 04:17:11;;;;;;;21.60;13.25;;;;;;;5.70;98.17;99889.03;1670962;85;28351;-68
2021/01/05 04:19:38;;;;;;;24.75;14.40;;;;;;;5.69;98.15;99884.28;1671035;85;26742;-68
2021/01/05 04:22:04;;;;;;;22.05;13.22;;;;;;;5.69;98.14;99880.36;1670945;85;22020;-68
2021/01/05 04:24:29;;;;;;;20.50;12.80;;;;;;;5.68;98.28;99874.75;1670926;85;27043;-68
2021/01/05 04:26:55;;;;;;;21.00;12.13;;;;;;;5.70;97.93;99874.62;1670795;85;24441;-68
2021/01/05 04:29:21;;;;;;;20.55;11.80;;;;;;;5.75;97.94;99879.83;1671067;85;28347;-68
2021/01/05 04:31:46;;;;;;;18.30;11.35;;;;;;;5.72;97.76;99879.27;1670893;85;26842;-68
2021/01/05 04:34:13;;;;;;;17.37;11.38;;;;;;;5.67;97.95;99871.81;1670624;85;21955;-68
2021/01/05 04:36:39;;;;;;;17.65;11.20;;;;;;;5.65;98.01;99873.71;1670638;85;21182;-68
2021/01/05 04:39:05;;;;;;;15.72;9.88;;;;;;;5.62;98.26;99880.52;1670988;85;25248;-68
2021/01/05 04:41:36;;;;;;;14.90;9.85;;;;;;;5.65;98.30;99882.88;1650881;85;21209;-68
2021/01/05 04:44:02;;;;;;;16.32;10.10;;;;;;;5.58;98.79;99884.38;1669156;85;21245;-68
2021/01/05 04:46:42;;;;;;;14.98;9.80;;;;;;;5.64;98.46;99877.31;1651506;85;21612;-69
2021/01/05 04:49:39;;;;;;;15.32;9.20;;;;;;;5.65;98.79;99875.02;1670866;85;21163;-67
2021/01/05 04:52:10;;;;;;;15.78;9.20;;;;;;;5.79;98.32;99879.08;1670902;85;21766;-68
2021/01/05 04:54:47;;;;;;;13.62;8.90;;;;;;;6.00;96.98;99875.12;1670968;85;21214;-68
2021/01/05 04:57:21;;;;;;;13.38;8.80;;;;;;;6.18;96.30;99874.47;1670927;85;21115;-68
2021/01/05 04:59:54;;;;;;;12.85;7.83;;;;;;;6.21;95.80;99865.03;1670665;85;21766;-68
2021/01/05 05:02:35;;;;;;;12.03;7.80;;;;;;;6.11;95.76;99869.77;1670726;85;21107;-66
2021/01/05 05:05:30;;;;;;;10.68;7.12;;;;;;;6.00;95.90;99873.81;1674302;84;21231;-68
2021/01/05 05:08:22;;;;;;;11.53;7.65;;;;;;;5.98;96.26;99873.13;1672696;84;21168;-67
2021/01/05 05:11:05;;;;;;;11.00;7.30;;;;;;;5.95;96.57;99864.19;1675364;84;21219;-67
2021/01/05 05:14:00;;;;;;;11.28;7.62;;;;;;;5.84;96.76;99857.26;1673294;84;21254;-66
2021/01/05 05:16:52;;;;;;;10.40;7.15;;;;;;;5.80;97.21;99857.66;1675832;84;21478;-68
2021/01/05 05:19:36;;;;;;;11.10;7.30;;;;;;;5.83;97.08;99856.08;1678501;84;21154;-67
2021/01/05 05:22:15;;;;;;;10.03;6.62;;;;;;;5.79;97.37;99859.42;1681892;84;21334;-68
2021/01/05 05:25:04;;;;;;;11.57;7.17;;;;;;;5.75;97.46;99857.56;1646556;84;21274;-68
2021/01/05 05:27:46;;;;;;;10.60;7.08;;;;;;;5.73;97.45;99851.63;1663128;84;21199;-68
2021/01/05 05:30:15;;;;;;;9.03;6.20;;;;;;;5.75;97.54;99845.77;1672769;84;21236;-68
2021/01/05 05:32:48;;;;;;;9.75;6.70;;;;;;;5.75;97.53;99849.70;1674251;84;21283;-69
2021/01/05 05:35:45;;;;;;;10.35;6.53;;;;;;;5.78;97.57;99842.53;1673257;83;21226;-68
2021/01/05 05:38:49;;;;;;;;;;;;;;;5.77;97.41;99841.70;1680173;84;21196;-68
2021/01/05 05:41:58;;;;;;;9.20;5.87;;;;;;;5.78;97.41;99835.98;1672345;84;22143;-68
2021/01/05 05:44:35;;;;;;;9.08;6.25;;;;;;;5.70;97.57;99836.17;1675594;84;21172;-68
2021/01/05 05:47:18;;;;;;;9.15;5.58;;;;;;;5.61;98.15;99834.35;1679014;84;21242;-68
2021/01/05 05:49:58;;;;;;;9.85;5.85;;;;;;;5.63;98.13;99829.80;1648689;84;21163;-69
2021/01/05 05:52:41;;;;;;;9.30;5.83;;;;;;;5.61;98.44;99826.49;1654205;84;21216;-68
2021/01/05 05:55:36;;;;;;;7.60;5.35;;;;;;;5.66;98.21;99825.61;1674772;84;22043;-67
2021/01/05 05:58:02;;;;;;;8.18;5.40;;;;;;;5.69;98.19;99823.21;1675873;84;21657;-68
2021/01/05 06:00:33;;;;;;;8.90;5.15;;;;;;;5.70;98.13;99823.08;1676535;84;25777;-67
2021/01/05 06:03:01;;;;;;;7.78;5.40;;;;;;;5.77;98.00;99817.31;1671713;84;21232;-68
2021/01/05 06:05:31;;;;;;;7.85;5.25;;;;;;;5.70;97.91;99812.60;1676202;84;21208;-67
2021/01/05 06:07:57;;;;;;;8.80;5.28;;;;;;;5.69;98.13;99812.24;1673537;85;21890;-67
2021/01/05 06:10:23;;;;;;;8.68;5.00;;;;;;;5.70;98.15;99811.29;1676359;85;27305;-68
2021/01/05 06:12:49;;;;;;;7.83;5.08;;;;;;;5.67;98.07;99818.10;1675801;85;21165;-68
2021/01/05 06:15:16;;;;;;;6.58;4.90;;;;;;;5.73;98.04;99814.11;1672705;84;29575;-69
2021/01/05 06:17:41;;;;;;;7.33;4.80;;;;;;;5.67;97.91;99811.55;1677227;85;21247;-68
2021/01/05 06:20:08;;;;;;;7.62;5.42;;;;;;;5.83;98.07;99804.49;1676729;84;22036;-67
2021/01/05 06:22:34;;;;;;;9.48;4.53;;;;;;;6.00;96.95;99808.28;1671491;85;21279;-68
2021/01/05 06:25:00;;;;;;;7.17;5.05;;;;;;;6.15;95.99;99803.95;1673892;85;24602;-68
2021/01/05 06:27:26;;;;;;;6.37;4.55;;;;;;;6.13;95.13;99801.47;1673795;84;21253;-66
2021/01/05 06:29:52;;;;;;;5.80;4.12;;;;;;;6.00;95.46;99796.98;1675790;84;26926;-68
2021/01/05 06:32:18;;;;;;;6.53;4.22;;;;;;;5.92;95.90;99798.94;1674589;85;22352;-68
2021/01/05 06:34:43;;;;;;;7.15;4.60;;;;;;;5.91;96.37;99789.41;1677811;85;27067;-69
2021/01/05 06:37:09;;;;;;;6.90;4.58;;;;;;;5.88;96.37;99784.44;1672148;85;25369;-67
2021/01/05 06:39:35;;;;;;;6.87;4.53;;;;;;;5.85;96.48;99786.84;1678034;84;28915;-67
2021/01/05 06:42:01;;;;;;;6.45;4.37;;;;;;;5.82;96.51;99787.10;1676617;84;28089;-67
2021/01/05 06:44:26;;;;;;;6.45;4.03;;;;;;;5.79;96.53;99791.80;1673257;84;22059;-68
2021/01/05 06:46:52;;;;;;;5.25;3.40;;;;;;;5.79;96.66;99782.63;1674337;85;26307;-69
2021/01/05 06:49:18;;;;;;;5.50;3.20;;;;;;;5.72;96.04;99788.40;1675642;84;21243;-68
2021/01/05 06:51:44;;;;;;;4.75;3.05;;;;;;;5.68;96.25;99792.23;1676841;84;28500;-69
2021/01/05 06:54:10;;;;;;;4.65;3.00;;;;;;;5.70;96.35;99790.80;1674264;85;26790;-69
2021/01/05 06:56:51;;;;;;;6.40;3.15;;;;;;;5.57;96.43;99793.66;1672076;84;21889;-69
2021/01/05 06:59:17;;;;;;;3.75;2.67;;;;;;;5.45;97.04;99798.64;1672755;84;21171;-69
2021/01/05 07:01:59;;;;;;;4.03;2.72;;;;;;;5.38;97.01;99769.05;1676910;84;25229;-68
2021/01/05 07:04:25;;;;;;;4.05;2.80;;;;;;;5.47;96.73;99787.55;1677060;84;21239;-68
2021/01/05 07:06:51;;;;;;;4.30;2.90;;;;;;;5.52;96.70;99786.69;1673270;84;26741;-68
2021/01/05 07:09:18;;;;;;;4.30;2.65;;;;;;;5.44;96.81;99788.66;1677271;84;21573;-68
2021/01/05 07:11:44;;;;;;;5.28;2.60;;;;;;;5.46;96.89;99778.05;1678387;84;21227;-71
2021/01/05 07:14:12;;;;;;;4.28;2.72;;;;;;;5.48;96.98;99776.12;1675168;84;25274;-70
2021/01/05 07:16:38;;;;;;;4.15;3.00;;;;;;;5.44;96.90;99767.70;1674686;84;21210;-68
2021/01/05 07:19:04;;;;;;;4.58;2.62;;;;;;;5.36;97.35;99768.83;1674950;84;26802;-69
2021/01/05 07:21:30;;;;;;;3.33;2.27;;;;;;;5.37;97.16;99776.55;1673178;84;21461;-69
2021/01/05 07:23:55;;;;;;;3.58;2.60;;;;;;;5.36;97.10;99775.38;1681759;84;27045;-68
2021/01/05 07:26:21;;;;;;;3.65;2.30;;;;;;;5.33;96.97;99781.72;1670717;84;25322;-67
2021/01/05 07:28:47;;;;;;;3.60;2.40;;;;;;;5.35;96.68;99774.55;1675350;84;28932;-68
2021/01/05 07:31:13;;;;;;;4.62;2.70;;;;;;;5.37;96.65;99777.86;1673159;84;27741;-68
2021/01/05 07:33:38;;;;;;;3.65;2.37;;;;;;;5.28;96.68;99774.72;1675415;84;23283;-67
2021/01/05 07:36:27;;;;;;;4.42;2.30;;;;;;;5.30;97.03;99772.82;1675196;84;28191;-67
2021/01/05 07:38:53;;;;;;;4.08;2.40;;;;;;;5.32;96.96;99772.69;1653087;84;21211;-66
2021/01/05 07:41:19;;;;;;;3.42;2.40;;;;;;;5.33;96.82;99767.32;1677895;84;28483;-68
2021/01/05 07:43:46;;;;;;;3.67;2.17;;;;;;;5.31;96.35;99770.53;1679726;84;21179;-69
2021/01/05 07:46:11;;;;;;;5.00;1.90;;;;;;;5.34;96.26;99766.34;1676169;84;21251;-69
2021/01/05 07:48:37;;;;;;;3.33;1.85;;;;;;;5.32;95.75;99765.66;1674930;83;27132;-68
2021/01/05 07:51:06;;;;;;;2.42;1.70;;;;;;;5.42;95.17;99760.94;1675566;84;25430;-70
2021/01/05 07:53:31;;;;;;;2.98;1.55;;;;;;;5.35;94.12;99758.84;1678216;84;21659;-68
2021/01/05 07:55:57;;;;;;;2.45;1.60;;;;;;;5.43;93.60;99762.60;1676071;84;27753;-68
2021/01/05 07:58:23;;;;;;;2.95;1.70;;;;;;;5.55;93.31;99749.75;1673119;84;22607;-68
2021/01/05 08:00:48;;;;;;;4.05;1.70;;;;;;;5.54;93.09;99749.40;1676533;84;27539;-68
2021/01/05 08:03:14;;;;;;;2.45;1.57;;;;;;;5.50;93.37;99754.55;1670651;84;25181;-68
2021/01/05 08:05:40;;;;;;;3.05;1.98;;;;;;;5.37;93.23;99763.95;1678507;84;28357;-68
2021/01/05 08:08:06;;;;;;;2.83;1.80;;;;;;;5.36;93.72;99755.28;1675564;84;26906;-67
2021/01/05 08:10:35;;;;;;;2.83;1.85;;;;;;;5.36;93.72;99755.28;1677052;84;22219;-68
2021/01/05 08:13:02;;;;;;;2.92;1.98;;;;;;;5.24;93.89;99749.78;1676469;84;22299;-68
2021/01/05 08:15:31;;;;;;;2.50;1.82;;;;;;;5.15;94.51;99749.27;1678202;84;21198;-67
2021/01/05 08:17:57;;;;;;;2.83;1.47;;;;;;;5.11;94.59;99750.02;1650660;84;35410;-68
2021/01/05 08:20:26;;;;;;;2.50;1.72;;;;;;;5.07;93.87;99742.55;1654267;86;21220;-68
2021/01/05 08:22:52;;;;;;;5.87;1.50;;;;;;;5.01;94.15;99735.55;1654192;86;21213;-68
2021/01/05 08:25:18;;;;;;;2.27;1.60;;;;;;;5.06;93.96;99739.09;1653198;86;27039;-72
2021/01/05 08:27:50;;;;;;;2.62;1.60;;;;;;;5.02;93.94;99734.60;1653947;85;21216;-67
2021/01/05 08:30:24;;;;;;;2.60;1.60;;;;;;;5.02;94.10;99740.33;1652787;85;21168;-67
2021/01/05 08:32:51;;;;;;;2.75;1.70;;;;;;;5.02;94.22;99737.22;1652621;86;21230;-68
2021/01/05 08:35:19;;;;;;;2.45;1.60;;;;;;;5.02;94.42;99733.30;1653761;86;21208;-68
2021/01/05 08:37:45;;;;;;;2.45;1.70;;;;;;;4.99;94.48;99733.55;1652451;86;21269;-67
2021/01/05 08:40:15;;;;;;;3.85;1.80;;;;;;;4.86;94.74;99734.23;1653878;85;25269;-68
2021/01/05 08:42:40;;;;;;;3.10;1.67;;;;;;;4.82;94.97;99725.83;1652936;85;21188;-65
2021/01/05 08:45:07;;;;;;;2.58;1.42;;;;;;;4.83;94.77;99720.11;1652498;85;27185;-66
2021/01/05 08:47:33;;;;;;;2.35;1.50;;;;;;;4.79;93.84;99720.03;1654372;85;21669;-65
2021/01/05 08:49:59;;;;;;;2.70;1.70;;;;;;;4.73;93.81;99717.94;1654257;86;27437;-66
2021/01/05 08:52:25;;;;;;;2.87;1.80;;;;;;;4.67;94.47;99720.09;1654562;86;21221;-66
2021/01/05 08:54:51;;;;;;;2.77;1.57;;;;;;;4.67;94.39;99716.16;1654095;86;28374;-67
2021/01/05 08:57:17;;;;;;;1.50;1.20;;;;;;;4.53;93.64;99713.88;1652372;86;26815;-66
2021/01/05 08:59:45;;;;;;;2.22;1.30;;;;;;;4.49;93.97;99713.81;1653554;86;21940;-64
2021/01/05 09:02:11;;;;;;;1.70;1.20;;;;;;;4.37;93.98;99705.19;1654556;86;21201;-65
2021/01/05 09:04:37;;;;;;;2.05;1.12;;;;;;;4.38;93.78;99705.55;1654377;86;24368;-65
2021/01/05 09:07:03;;;;;;;2.50;1.50;;;;;;;4.28;93.55;99698.92;1645892;86;28441;-66
2021/01/05 09:09:29;;;;;;;3.33;1.60;;;;;;;4.30;94.07;99691.80;1677595;84;21657;-66
2021/01/05 09:11:56;;;;;;;2.47;1.50;;;;;;;4.34;94.23;99702.01;1677006;85;21997;-66
2021/01/05 09:14:23;;;;;;;2.77;1.50;;;;;;;4.37;94.24;99704.37;1676968;84;37592;-67
2021/01/05 09:16:58;;;;;;;2.12;1.40;;;;;;;4.33;94.60;99701.16;1676643;84;21764;-66
2021/01/05 09:19:24;;;;;;;2.65;1.70;;;;;;;4.42;94.63;99703.50;1678140;85;21334;-66
2021/01/05 09:21:49;;;;;;;2.33;1.20;;;;;;;4.53;94.04;99702.60;1678040;84;21286;-67
2021/01/05 09:24:15;;;;;;;2.92;1.42;;;;;;;4.70;92.99;99707.73;1678267;84;21763;-66
2021/01/05 09:26:41;;;;;;;2.72;1.35;;;;;;;4.72;92.27;99700.57;1678536;84;21208;-67
2021/01/05 09:29:07;;;;;;;2.13;1.40;;;;;;;4.58;91.93;99699.94;1678511;84;23687;-67
2021/01/05 09:31:43;;;;;;;1.87;1.37;;;;;;;4.53;91.78;99692.97;1678525;84;21263;-66
2021/01/05 09:34:09;;;;;;;3.42;1.40;;;;;;;4.25;92.63;99688.72;1678176;84;21231;-66
2021/01/05 09:36:35;;;;;;;2.98;1.70;;;;;;;4.30;93.57;99686.58;1678532;85;21232;-67
2021/01/05 09:39:04;;;;;;;2.90;1.70;;;;;;;4.39;93.64;99684.15;1677466;85;27346;-67
2021/01/05 09:41:33;;;;;;;4.40;1.60;;;;;;;4.32;93.55;99676.00;1679275;84;21212;-67
2021/01/05 09:43:59;;;;;;;2.85;1.60;;;;;;;4.33;93.70;99667.18;1676137;84;21159;-65
2021/01/05 09:46:24;;;;;;;2.90;1.70;;;;;;;4.24;93.55;99667.48;1677846;84;26789;-66
2021/01/05 09:48:50;;;;;;;2.35;1.30;;;;;;;4.19;93.31;99661.79;1676941;84;22203;-65
2021/01/05 09:51:23;;;;;;;2.70;1.37;;;;;;;4.17;93.14;99666.33;1677880;85;25874;-66
2021/01/05 09:53:49;;;;;;;3.83;1.92;;;;;;;4.20;93.40;99667.38;1676375;84;21401;-65
2021/01/05 09:56:14;;;;;;;2.72;1.50;;;;;;;4.01;93.61;99660.23;1678244;84;28322;-66
2021/01/05 09:58:40;;;;;;;2.17;1.50;;;;;;;4.02;93.46;99657.13;1678143;84;26664;-66
2021/01/05 10:01:06;;;;;;;3.12;1.60;;;;;;;3.91;93.40;99658.83;1678214;84;21371;-65
2021/01/05 10:03:32;;;;;;;2.37;1.60;;;;;;;3.85;94.02;99657.20;1677518;84;25465;-65
2021/01/05 10:05:57;;;;;;;2.93;1.60;;;;;;;3.94;94.08;99644.22;1676332;84;23723;-63
2021/01/05 10:08:23;;;;;;;2.42;1.50;;;;;;;4.00;94.11;99647.30;1675984;84;28431;-65
2021/01/05 10:10:49;;;;;;;4.22;1.77;;;;;;;4.04;93.87;99640.84;1678051;84;26697;-66
2021/01/05 10:13:15;;;;;;;2.10;1.50;;;;;;;4.07;94.20;99630.14;1677528;84;21924;-66
2021/01/05 10:15:40;;;;;;;2.60;1.52;;;;;;;3.97;93.74;99634.48;1677628;84;27036;-64
2021/01/05 10:18:06;;;;;;;3.47;1.63;;;;;;;3.97;93.78;99631.88;1676429;84;24759;-64
2021/01/05 10:20:32;;;;;;;2.10;1.50;;;;;;;3.97;93.84;99626.65;1676406;84;28323;-65
2021/01/05 10:22:58;;;;;;;2.35;1.40;;;;;;;3.94;93.66;99622.01;1677233;84;26728;-66
2021/01/05 10:25:24;;;;;;;4.17;1.60;;;;;;;3.90;93.78;99608.88;1676579;84;21847;-68
2021/01/05 10:27:49;;;;;;;3.40;1.50;;;;;;;3.93;94.06;99611.23;1676815;84;25843;-66
2021/01/05 10:30:16;;;;;;;2.53;1.47;;;;;;;3.97;93.74;99609.67;1677891;84;24812;-66
2021/01/05 10:32:42;;;;;;;2.33;1.50;;;;;;;4.02;93.54;99603.58;1677556;84;21183;-65
2021/01/05 10:35:09;;;;;;;2.40;1.60;;;;;;;4.01;93.83;99600.60;1676739;84;21623;-66
2021/01/05 10:37:34;;;;;;;3.02;1.60;;;;;;;3.94;93.11;99602.41;1677579;84;21263;-68
2021/01/05 10:40:00;;;;;;;1.93;1.37;;;;;;;3.89;93.21;99595.45;1676979;84;25970;-66
2021/01/05 10:42:28;;;;;;;2.53;1.50;;;;;;;3.92;93.50;99595.69;1677000;84;24224;-66
2021/01/05 10:44:53;;;;;;;;;;;;;;;4.06;93.06;99600.58;1678388;84;21227;-67
2021/01/05 10:47:19;;;;;;;3.00;1.70;;;;;;;4.23;92.40;99591.33;1677605;84;20194;-66
2021/01/05 10:49:45;;;;;;;2.53;1.70;;;;;;;4.41;91.83;99586.80;1676432;84;22471;-67
2021/01/05 10:52:16;;;;;;;3.57;1.60;;;;;;;4.49;91.25;99578.67;1677804;84;27002;-67
2021/01/05 10:54:41;;;;;;;2.70;1.67;;;;;;;4.46;91.44;99575.50;1677789;84;21557;-67
2021/01/05 10:57:07;;;;;;;3.02;1.62;;;;;;;4.38;92.16;99566.16;1677609;84;28634;-67
2021/01/05 10:59:33;;;;;;;4.92;1.82;;;;;;;4.35;92.11;99568.56;1676570;84;26728;-66
2021/01/05 11:02:02;;;;;;;3.42;1.80;;;;;;;4.12;92.83;99565.28;1676569;84;21954;-65
2021/01/05 11:04:28;;;;;;;2.47;1.62;;;;;;;4.14;93.22;99559.44;1675447;84;21555;-66
2021/01/05 11:06:59;;;;;;;3.00;1.80;;;;;;;4.15;93.55;99558.49;1677776;84;21513;-66
2021/01/05 11:09:26;;;;;;;2.72;1.80;;;;;;;4.14;93.41;99552.91;1674338;84;21200;-67
2021/01/05 11:11:59;;;;;;;2.83;1.95;;;;;;;4.12;93.84;99554.83;1677087;84;21152;-67
2021/01/05 11:14:25;;;;;;;3.80;2.17;;;;;;;4.14;93.95;99548.98;1678579;84;21231;-66
2021/01/05 11:16:51;;;;;;;3.83;2.67;;;;;;;4.12;94.05;99545.69;1678227;84;27150;-67
2021/01/05 11:19:16;;;;;;;4.17;2.67;;;;;;;4.09;94.52;99538.11;1678162;84;25202;-68
2021/01/05 11:22:00;;;;;;;3.37;2.20;;;;;;;4.12;94.52;99523.48;1676743;84;28370;-66
2021/01/05 11:24:27;;;;;;;3.67;2.52;;;;;;;4.15;94.54;99517.98;1677114;84;21235;-66
2021/01/05 11:26:53;;;;;;;3.83;2.30;;;;;;;4.18;94.64;99524.27;1663220;85;21300;-68
2021/01/05 11:29:19;;;;;;;3.02;2.00;;;;;;;4.13;94.92;99515.97;1678291;84;21231;-66
2021/01/05 11:31:47;;;;;;;4.42;2.40;;;;;;;4.15;94.86;99519.30;1676641;84;21264;-67
2021/01/05 11:34:13;;;;;;;3.83;2.30;;;;;;;4.15;95.03;99517.98;1678520;84;21239;-66
2021/01/05 11:36:40;;;;;;;3.52;2.35;;;;;;;4.20;95.14;99513.19;1677699;84;26825;-64
2021/01/05 11:39:06;;;;;;;3.67;2.20;;;;;;;4.08;95.35;99512.44;1678208;84;21638;-65
2021/01/05 11:41:34;;;;;;;4.25;2.33;;;;;;;4.12;95.70;99508.62;1676816;84;25383;-65
2021/01/05 11:44:00;;;;;;;3.80;2.40;;;;;;;4.19;95.74;99511.52;1677636;84;21193;-64
2021/01/05 11:46:26;;;;;;;3.72;2.40;;;;;;;4.16;95.66;99511.78;1659103;84;21187;-66
2021/01/05 11:48:53;;;;;;;4.95;2.58;;;;;;;4.20;95.91;99504.05;1679371;84;26763;-67
2021/01/05 11:51:22;;;;;;;4.30;2.45;;;;;;;4.27;96.03;99497.34;1678210;84;21317;-67
2021/01/05 11:53:48;;;;;;;4.45;2.90;;;;;;;4.26;96.01;99493.55;1677079;84;21253;-65